Time;durP1;ratioP1;P1;durP2;ratioP2;P2;SDS_P1;SDS_P2;PMS_P1;PMS_P2;Temp;Humidity;BMP_temperature;BMP_pressure;BME280_temperature;BME280_humidity;BME280_pressure;Samples;Min_cycle;Max_cycle;Signal;HPM_P1;HPM_P2
2023/10/04 00:01:38;;;;;;;1.90;0.50;;;;;;;10.95;87.20;99125.08;108779;1272;99652;-61
2023/10/04 00:04:07;;;;;;;2.20;0.90;;;;;;;10.93;87.63;99122.23;107766;1272;23902;-62
2023/10/04 00:06:36;;;;;;;1.30;0.30;;;;;;;10.90;88.24;99128.84;106651;1271;100159;-61
2023/10/04 00:09:05;;;;;;;2.20;0.50;;;;;;;10.92;88.91;99131.02;107093;1273;24012;-60
2023/10/04 00:11:34;;;;;;;1.30;0.60;;;;;;;10.94;89.24;99128.11;106693;1274;22870;-61
2023/10/04 00:14:03;;;;;;;1.80;0.50;;;;;;;10.99;89.67;99132.52;106687;1273;100010;-61
2023/10/04 00:16:32;;;;;;;0.80;0.40;;;;;;;11.07;89.74;99138.17;106625;1271;22540;-61
2023/10/04 00:19:02;;;;;;;1.60;0.50;;;;;;;11.12;89.91;99146.56;106953;1275;99137;-62
2023/10/04 00:21:33;;;;;;;0.80;0.40;;;;;;;11.19;90.76;99156.09;106708;1274;22655;-62
2023/10/04 00:24:04;;;;;;;1.80;0.60;;;;;;;11.27;90.71;99167.64;106390;1274;99267;-62
2023/10/04 00:26:32;;;;;;;4.60;0.70;;;;;;;11.32;90.80;99182.17;106586;1272;22653;-61
2023/10/04 00:29:04;;;;;;;2.00;0.50;;;;;;;11.34;90.83;99196.85;106820;1271;24204;-61
2023/10/04 00:31:33;;;;;;;2.50;0.70;;;;;;;11.36;91.31;99198.27;106556;1273;100071;-61
2023/10/04 00:34:03;;;;;;;1.60;0.80;;;;;;;11.36;91.71;99204.35;106852;1277;22604;-61
2023/10/04 00:36:33;;;;;;;1.60;0.30;;;;;;;11.34;91.85;99204.67;106458;1270;99484;-60
2023/10/04 00:39:03;;;;;;;3.70;0.50;;;;;;;11.33;92.42;99200.70;106520;1272;22538;-60
2023/10/04 00:41:32;;;;;;;6.30;1.50;;;;;;;11.31;93.02;99194.89;106672;1272;22846;-61
2023/10/04 00:44:01;;;;;;;1.30;0.50;;;;;;;11.34;93.77;99193.55;106659;1274;99223;-60
2023/10/04 00:46:34;;;;;;;4.30;1.00;;;;;;;11.38;94.55;99192.79;106942;1270;22651;-61
2023/10/04 00:49:04;;;;;;;4.40;1.60;;;;;;;11.43;94.83;99192.98;106615;1271;99941;-61
2023/10/04 00:51:35;;;;;;;1.90;0.80;;;;;;;11.42;94.31;99185.54;106569;1271;23587;-60
2023/10/04 00:54:10;;;;;;;2.50;0.50;;;;;;;11.38;95.00;99191.92;106564;1273;99379;-60
2023/10/04 00:56:41;;;;;;;3.20;0.50;;;;;;;11.42;95.88;99191.29;106517;1273;25220;-60
2023/10/04 00:59:11;;;;;;;0.90;0.50;;;;;;;11.46;97.61;99213.23;106758;1274;23746;-60
2023/10/04 01:01:40;;;;;;;2.20;0.40;;;;;;;11.47;96.82;99217.55;107068;1270;99834;-60
2023/10/04 01:04:10;;;;;;;1.00;0.50;;;;;;;11.39;96.91;99213.77;106956;1270;22524;-61
2023/10/04 01:06:41;;;;;;;1.90;0.50;;;;;;;11.34;96.44;99205.73;106689;1273;99668;-58
2023/10/04 01:09:10;;;;;;;0.80;0.40;;;;;;;11.25;96.40;99213.40;106667;1273;24769;-60
2023/10/04 01:11:46;;;;;;;2.50;0.50;;;;;;;11.21;96.87;99214.86;107050;1270;22688;-60
2023/10/04 01:14:37;;;;;;;2.50;0.60;;;;;;;11.22;97.24;99217.25;106914;1274;25204;-60
2023/10/04 01:17:12;;;;;;;1.00;0.40;;;;;;;11.20;96.73;99224.48;106817;1271;25498;-59
2023/10/04 01:19:41;;;;;;;3.10;0.90;;;;;;;11.13;97.36;99216.58;106749;1270;99088;-59
2023/10/04 01:22:11;;;;;;;3.50;0.90;;;;;;;11.10;97.66;99220.55;107356;1273;26760;-59
2023/10/04 01:24:41;;;;;;;1.30;0.60;;;;;;;11.11;97.76;99225.20;106429;1272;99545;-60
2023/10/04 01:27:10;;;;;;;1.80;0.50;;;;;;;11.11;97.64;99226.76;106529;1270;24227;-59
2023/10/04 01:29:39;;;;;;;3.30;1.10;;;;;;;11.12;98.10;99230.02;107385;1257;24230;-60
2023/10/04 01:32:08;;;;;;;1.80;0.50;;;;;;;11.16;98.11;99231.52;107149;1270;99483;-60
2023/10/04 01:34:37;;;;;;;1.60;0.40;;;;;;;11.20;98.59;99228.52;107142;1271;22531;-59
2023/10/04 01:37:06;;;;;;;2.70;0.70;;;;;;;11.23;98.39;99226.75;107416;1274;99232;-60
2023/10/04 01:39:36;;;;;;;2.70;0.70;;;;;;;11.21;98.45;99231.40;106785;1275;22539;-60
2023/10/04 01:42:06;;;;;;;2.30;0.50;;;;;;;11.21;98.99;99237.51;106904;1276;99776;-60
2023/10/04 01:44:34;;;;;;;2.50;0.70;;;;;;;11.24;98.95;99249.70;107133;1267;24266;-60
2023/10/04 01:47:03;;;;;;;2.80;1.50;;;;;;;11.25;99.08;99248.79;106544;1277;27733;-60
2023/10/04 01:49:32;;;;;;;5.60;1.00;;;;;;;11.27;99.33;99248.67;107445;1273;99768;-60
2023/10/04 01:52:05;;;;;;;2.50;0.70;;;;;;;11.27;99.89;99253.50;107012;1273;22598;-59
2023/10/04 01:54:34;;;;;;;1.00;0.40;;;;;;;11.28;99.86;99251.74;106699;1274;99643;-60
2023/10/04 01:57:05;;;;;;;2.20;0.70;;;;;;;11.25;99.78;99254.89;106499;1271;25303;-60
2023/10/04 01:59:33;;;;;;;3.70;0.50;;;;;;;11.23;99.89;99252.91;106704;1263;23767;-60
2023/10/04 02:02:07;;;;;;;2.60;0.50;;;;;;;11.19;99.99;99252.23;106442;1269;99609;-60
2023/10/04 02:04:36;;;;;;;3.60;1.10;;;;;;;11.11;99.75;99253.40;106499;1272;22647;-60
2023/10/04 02:07:05;;;;;;;2.00;0.60;;;;;;;11.09;99.99;99255.28;106693;1273;99239;-60
2023/10/04 02:09:33;;;;;;;5.10;0.60;;;;;;;11.13;99.89;99254.89;106992;1273;22537;-60
2023/10/04 02:12:04;;;;;;;2.90;0.70;;;;;;;11.10;99.84;99258.73;106501;1270;100002;-59
2023/10/04 02:14:33;;;;;;;2.70;0.40;;;;;;;11.03;100.00;99258.40;106641;1274;24277;-59
2023/10/04 02:17:06;;;;;;;0.80;0.40;;;;;;;11.03;100.00;99263.79;106637;1271;22541;-60
2023/10/04 02:19:36;;;;;;;2.00;0.50;;;;;;;11.07;100.00;99264.98;106505;1271;99755;-60
2023/10/04 02:22:07;;;;;;;1.40;0.40;;;;;;;11.10;100.00;99268.27;106655;1273;22539;-60
2023/10/04 02:24:38;;;;;;;3.90;0.60;;;;;;;11.16;100.00;99270.70;106602;1271;99828;-61
2023/10/04 02:27:07;;;;;;;2.70;0.50;;;;;;;11.18;100.00;99269.41;106515;1270;22525;-60
2023/10/04 02:29:38;;;;;;;2.80;0.60;;;;;;;11.20;100.00;99280.92;106653;1271;22648;-60
2023/10/04 02:32:09;;;;;;;2.10;0.60;;;;;;;11.20;100.00;99283.19;106754;1273;101417;-61
2023/10/04 02:34:38;;;;;;;2.10;0.50;;;;;;;11.22;100.00;99278.23;106614;1270;23826;-60
2023/10/04 02:37:07;;;;;;;1.60;0.70;;;;;;;11.19;100.00;99278.40;106619;1272;99830;-60
2023/10/04 02:39:39;;;;;;;4.10;0.70;;;;;;;11.15;100.00;99277.59;106831;1272;22530;-60
2023/10/04 02:42:09;;;;;;;2.90;0.60;;;;;;;11.12;100.00;99280.34;106367;1270;100246;-60
2023/10/04 02:44:42;;;;;;;5.10;1.50;;;;;;;11.08;100.00;99281.83;106651;1267;25381;-59
2023/10/04 02:47:13;;;;;;;2.00;0.50;;;;;;;11.03;100.00;99289.77;107097;1270;24336;-60
2023/10/04 02:49:42;;;;;;;3.10;1.00;;;;;;;11.03;100.00;99291.14;106694;1263;99422;-59
2023/10/04 02:52:11;;;;;;;3.70;0.80;;;;;;;11.06;100.00;99287.83;106778;1272;25457;-60
2023/10/04 02:54:41;;;;;;;3.40;0.60;;;;;;;11.11;100.00;99288.25;106479;1271;99439;-60
2023/10/04 02:57:09;;;;;;;2.50;0.60;;;;;;;11.18;100.00;99293.27;106526;1271;24247;-60
2023/10/04 02:59:38;;;;;;;2.50;0.70;;;;;;;11.26;100.00;99293.67;106439;1272;22583;-59
2023/10/04 03:02:09;;;;;;;2.60;0.60;;;;;;;11.29;100.00;99294.71;106794;1265;99688;-62
2023/10/04 03:04:40;;;;;;;4.80;1.20;;;;;;;11.29;100.00;99299.77;106942;1272;25387;-60
2023/10/04 03:07:09;;;;;;;2.20;0.30;;;;;;;11.23;100.00;99296.25;106860;1271;99956;-60
2023/10/04 03:09:38;;;;;;;2.00;0.40;;;;;;;11.20;100.00;99291.21;106951;1272;23527;-60
2023/10/04 03:12:07;;;;;;;1.10;0.40;;;;;;;11.19;100.00;99293.55;106402;1274;99381;-60
2023/10/04 03:14:36;;;;;;;2.90;0.60;;;;;;;11.15;100.00;99294.30;106720;1270;22527;-60
2023/10/04 03:17:13;;;;;;;1.90;0.70;;;;;;;11.10;100.00;99301.36;106656;1271;22536;-60
2023/10/04 03:19:43;;;;;;;2.20;0.40;;;;;;;11.03;100.00;99300.20;106528;1271;99773;-60
2023/10/04 03:22:13;;;;;;;0.90;0.50;;;;;;;10.94;100.00;99300.84;106560;1271;25417;-60
2023/10/04 03:24:41;;;;;;;1.90;0.60;;;;;;;10.92;100.00;99297.81;106464;1273;99962;-60
2023/10/04 03:27:11;;;;;;;3.10;0.60;;;;;;;10.93;100.00;99304.23;106555;1273;25398;-60
2023/10/04 03:29:39;;;;;;;2.80;0.40;;;;;;;10.92;100.00;99301.69;106902;1271;25368;-59
2023/10/04 03:32:09;;;;;;;6.20;0.80;;;;;;;10.86;100.00;99309.80;106727;1270;98194;-61
2023/10/04 03:34:38;;;;;;;1.90;0.60;;;;;;;10.81;100.00;99312.55;106641;1271;26224;-60
2023/10/04 03:37:13;;;;;;;7.00;0.80;;;;;;;10.76;100.00;99313.20;107462;1271;99866;-60
2023/10/04 03:39:45;;;;;;;2.10;0.70;;;;;;;10.75;100.00;99311.33;106491;1270;24218;-60
2023/10/04 03:42:14;;;;;;;1.80;0.70;;;;;;;10.79;100.00;99314.21;106473;1273;99988;-59
2023/10/04 03:44:43;;;;;;;1.80;0.50;;;;;;;10.78;100.00;99312.69;106550;1270;24035;-60
2023/10/04 03:47:12;;;;;;;2.30;1.00;;;;;;;10.75;100.00;99318.09;106632;1270;24543;-60
2023/10/04 03:49:40;;;;;;;3.70;0.70;;;;;;;10.74;100.00;99321.96;106839;1264;99439;-60
2023/10/04 03:52:10;;;;;;;3.60;0.50;;;;;;;10.76;100.00;99319.09;106374;1267;24194;-61
2023/10/04 03:54:39;;;;;;;2.40;0.60;;;;;;;10.81;100.00;99318.48;110287;1271;100259;-61
2023/10/04 03:57:08;;;;;;;2.50;0.70;;;;;;;10.79;100.00;99320.66;110324;1278;22804;-61
2023/10/04 03:59:36;;;;;;;1.90;0.60;;;;;;;10.75;100.00;99321.25;110349;1271;22136;-60
2023/10/04 04:02:05;;;;;;;2.80;0.90;;;;;;;10.75;100.00;99324.89;107267;1270;99572;-60
2023/10/04 04:04:34;;;;;;;3.40;0.80;;;;;;;10.80;100.00;99326.19;107270;1273;25420;-60
2023/10/04 04:07:03;;;;;;;5.70;2.20;;;;;;;10.84;100.00;99328.55;107267;1270;99511;-60
2023/10/04 04:09:32;;;;;;;2.00;0.70;;;;;;;10.87;100.00;99333.98;106496;1272;22838;-61
2023/10/04 04:12:01;;;;;;;0.70;0.30;;;;;;;10.90;100.00;99338.18;106619;1270;102475;-60
2023/10/04 04:14:30;;;;;;;2.70;0.50;;;;;;;10.96;100.00;99339.55;107242;1270;22527;-60
2023/10/04 04:16:59;;;;;;;1.40;0.50;;;;;;;10.99;100.00;99345.52;106650;1270;23781;-60
2023/10/04 04:19:27;;;;;;;4.30;0.60;;;;;;;10.98;100.00;99354.78;106386;1271;99745;-60
2023/10/04 04:21:57;;;;;;;3.40;0.50;;;;;;;11.01;100.00;99354.46;106375;1271;25275;-60
2023/10/04 04:24:26;;;;;;;2.30;0.60;;;;;;;11.08;100.00;99352.50;109105;1271;100056;-61
2023/10/04 04:26:58;;;;;;;0.90;0.40;;;;;;;11.12;100.00;99349.49;106513;1271;25785;-60
2023/10/04 04:29:28;;;;;;;1.70;0.40;;;;;;;11.12;100.00;99343.58;106861;1271;22550;-60
2023/10/04 04:31:57;;;;;;;1.20;0.70;;;;;;;11.10;100.00;99349.63;106461;1273;99845;-60
2023/10/04 04:34:25;;;;;;;1.60;0.80;;;;;;;11.08;100.00;99361.55;106537;1270;23917;-60
2023/10/04 04:36:55;;;;;;;1.20;0.80;;;;;;;11.08;100.00;99362.27;106841;1270;99216;-60
2023/10/04 04:39:28;;;;;;;1.80;0.40;;;;;;;11.07;100.00;99357.10;108827;1274;22899;-60
2023/10/04 04:41:57;;;;;;;2.40;0.30;;;;;;;11.07;100.00;99356.96;106471;1263;100024;-59
2023/10/04 04:44:33;;;;;;;1.40;0.50;;;;;;;11.04;100.00;99357.83;106581;1277;22822;-59
2023/10/04 04:47:04;;;;;;;0.80;0.30;;;;;;;11.01;100.00;99358.66;106539;1271;22541;-59
2023/10/04 04:49:32;;;;;;;1.60;0.80;;;;;;;10.99;100.00;99362.92;106652;1264;99846;-60
2023/10/04 04:52:05;;;;;;;1.70;0.60;;;;;;;10.91;100.00;99374.34;107797;1270;24518;-59
2023/10/04 04:54:33;;;;;;;1.40;0.60;;;;;;;10.86;100.00;99373.17;106976;1271;99295;-58
2023/10/04 04:57:04;;;;;;;5.10;1.50;;;;;;;10.85;100.00;99375.89;107252;1271;22998;-57
2023/10/04 04:59:33;;;;;;;3.70;0.60;;;;;;;10.83;100.00;99379.48;107202;1272;22540;-57
2023/10/04 05:02:03;;;;;;;5.20;0.60;;;;;;;10.82;100.00;99383.73;106789;1270;100989;-58
2023/10/04 05:04:32;;;;;;;3.40;0.50;;;;;;;10.82;100.00;99381.10;107033;1271;25473;-58
2023/10/04 05:07:01;;;;;;;5.10;0.70;;;;;;;10.83;100.00;99382.98;106634;1271;99894;-58
2023/10/04 05:09:29;;;;;;;3.60;0.70;;;;;;;10.80;100.00;99381.21;106625;1270;23731;-59
2023/10/04 05:11:59;;;;;;;3.70;0.90;;;;;;;10.80;100.00;99384.34;107053;1271;100013;-59
2023/10/04 05:14:28;;;;;;;1.40;0.40;;;;;;;10.77;100.00;99387.98;106499;1274;24247;-58
2023/10/04 05:16:57;;;;;;;2.60;0.70;;;;;;;10.75;100.00;99390.52;106619;1263;24433;-58
2023/10/04 05:19:25;;;;;;;1.80;0.60;;;;;;;10.75;100.00;99383.91;106619;1267;99808;-58
2023/10/04 05:21:54;;;;;;;2.60;0.50;;;;;;;10.77;100.00;99384.67;106623;1271;22702;-58
2023/10/04 05:24:23;;;;;;;1.00;0.70;;;;;;;10.79;100.00;99380.05;106940;1270;100005;-58
2023/10/04 05:26:52;;;;;;;2.60;0.50;;;;;;;10.80;100.00;99380.13;106940;1274;25311;-58
2023/10/04 05:29:22;;;;;;;2.30;1.00;;;;;;;10.82;100.00;99380.20;108809;1271;25319;-58
2023/10/04 05:31:54;;;;;;;2.10;0.60;;;;;;;10.84;100.00;99378.39;108080;1272;99804;-57
2023/10/04 05:34:24;;;;;;;2.40;0.60;;;;;;;10.87;100.00;99380.49;107409;1273;25415;-59
2023/10/04 05:36:53;;;;;;;3.20;0.80;;;;;;;10.89;100.00;99379.64;106950;1271;99618;-58
2023/10/04 05:39:22;;;;;;;2.00;0.50;;;;;;;10.93;100.00;99381.16;107523;1270;23914;-58
2023/10/04 05:41:54;;;;;;;5.40;1.60;;;;;;;10.93;100.00;99385.00;108732;1275;99424;-55
2023/10/04 05:44:23;;;;;;;5.90;1.50;;;;;;;10.96;100.00;99388.13;107523;1271;25086;-56
2023/10/04 05:46:52;;;;;;;1.60;0.70;;;;;;;10.98;100.00;99396.79;109582;1272;25463;-56
2023/10/04 05:49:21;;;;;;;5.00;1.10;;;;;;;10.97;100.00;99394.86;109017;1267;100708;-58
2023/10/04 05:51:52;;;;;;;1.70;0.60;;;;;;;10.96;100.00;99399.96;108329;1271;25339;-58
2023/10/04 05:54:22;;;;;;;2.50;0.60;;;;;;;10.97;100.00;99397.83;106882;1275;100009;-57
2023/10/04 05:56:51;;;;;;;3.50;1.10;;;;;;;10.98;100.00;99401.80;107235;1271;22550;-57
2023/10/04 05:59:20;;;;;;;1.00;0.60;;;;;;;11.01;100.00;99403.77;107001;1271;23224;-56
2023/10/04 06:01:49;;;;;;;1.80;0.60;;;;;;;11.03;100.00;99402.95;110229;1271;99824;-57
2023/10/04 06:04:18;;;;;;;3.40;0.60;;;;;;;11.02;100.00;99407.21;107588;1270;24250;-56
2023/10/04 06:06:47;;;;;;;1.00;0.40;;;;;;;11.02;100.00;99413.81;106628;1271;99780;-57
2023/10/04 06:09:26;;;;;;;2.40;0.50;;;;;;;11.12;100.00;99417.64;107116;1271;23144;-59
2023/10/04 06:11:56;;;;;;;3.40;1.10;;;;;;;11.18;100.00;99413.63;106658;1271;99926;-56
2023/10/04 06:14:26;;;;;;;2.20;0.70;;;;;;;11.17;100.00;99423.64;106408;1267;412350;-58
2023/10/04 06:16:56;;;;;;;3.50;0.80;;;;;;;11.17;100.00;99425.73;106759;1271;26506;-60
2023/10/04 06:19:25;;;;;;;4.20;0.70;;;;;;;11.19;100.00;99424.55;106582;1271;99255;-58
2023/10/04 06:21:58;;;;;;;4.90;0.50;;;;;;;11.22;100.00;99424.55;106980;1271;22547;-59
2023/10/04 06:24:27;;;;;;;3.70;0.50;;;;;;;11.25;100.00;99427.18;107427;1270;100057;-61
2023/10/04 06:26:56;;;;;;;2.90;1.50;;;;;;;11.27;100.00;99429.88;106757;1271;22526;-60
2023/10/04 06:29:26;;;;;;;3.90;1.50;;;;;;;11.34;100.00;99427.21;106874;1272;22582;-61
2023/10/04 06:31:56;;;;;;;3.60;1.00;;;;;;;11.58;100.00;99436.36;106654;1271;99276;-58
2023/10/04 06:34:24;;;;;;;2.10;0.60;;;;;;;11.77;100.00;99433.69;106618;1273;22546;-60
2023/10/04 06:36:54;;;;;;;2.90;0.90;;;;;;;11.77;100.00;99436.14;107309;1270;99352;-60
2023/10/04 06:39:23;;;;;;;2.30;0.60;;;;;;;11.74;100.00;99435.96;106496;1270;22553;-59
2023/10/04 06:41:52;;;;;;;1.40;0.40;;;;;;;11.79;100.00;99438.48;106844;1271;100042;-60
2023/10/04 06:44:22;;;;;;;3.80;0.90;;;;;;;12.00;100.00;99445.66;107383;1273;25614;-59
2023/10/04 06:46:52;;;;;;;1.50;0.50;;;;;;;12.20;100.00;99450.29;107356;1270;23092;-59
2023/10/04 06:49:21;;;;;;;1.70;0.60;;;;;;;12.29;100.00;99450.23;107824;1272;100549;-61
2023/10/04 06:51:49;;;;;;;1.70;0.60;;;;;;;12.25;100.00;99451.71;106906;1272;24661;-59
2023/10/04 06:54:18;;;;;;;2.90;0.70;;;;;;;12.26;100.00;99451.85;106557;1270;100550;-60
2023/10/04 06:56:49;;;;;;;1.90;0.50;;;;;;;12.37;100.00;99457.33;106490;1272;23556;-60
2023/10/04 06:59:17;;;;;;;2.00;0.50;;;;;;;12.48;100.00;99458.42;106634;1271;22543;-59
2023/10/04 07:01:47;;;;;;;3.20;0.70;;;;;;;12.52;100.00;99461.83;106450;1254;99825;-59
2023/10/04 07:04:15;;;;;;;1.40;0.50;;;;;;;12.52;100.00;99468.30;106928;1272;22918;-59
2023/10/04 07:06:44;;;;;;;1.60;0.70;;;;;;;12.53;100.00;99465.42;106519;1271;99833;-58
2023/10/04 07:09:14;;;;;;;1.80;0.50;;;;;;;12.37;100.00;99474.60;106730;1270;22728;-60
2023/10/04 07:11:43;;;;;;;2.40;0.90;;;;;;;12.17;100.00;99478.52;107182;1271;24210;-60
2023/10/04 07:14:14;;;;;;;1.70;0.80;;;;;;;12.09;100.00;99491.55;106497;1270;23385;-60
2023/10/04 07:16:43;;;;;;;2.90;0.70;;;;;;;12.16;100.00;99490.79;108538;1271;24423;-60
2023/10/04 07:19:12;;;;;;;2.40;0.50;;;;;;;12.24;100.00;99496.30;107206;1271;99164;-60
2023/10/04 07:21:40;;;;;;;1.90;0.60;;;;;;;12.33;100.00;99498.59;106346;1272;25547;-60
2023/10/04 07:24:09;;;;;;;2.10;0.80;;;;;;;12.39;100.00;99501.04;107242;1271;99921;-53
2023/10/04 07:26:38;;;;;;;3.40;1.30;;;;;;;12.45;100.00;99499.25;107966;1271;24401;-59
2023/10/04 07:29:07;;;;;;;2.50;1.00;;;;;;;12.47;100.00;99501.77;109324;1271;22936;-64
2023/10/04 07:31:36;;;;;;;5.70;0.90;;;;;;;12.58;100.00;99497.48;107474;1272;100125;-57
2023/10/04 07:34:05;;;;;;;2.10;0.70;;;;;;;12.82;100.00;99492.35;106491;1273;22539;-56
2023/10/04 07:36:36;;;;;;;1.50;0.70;;;;;;;13.07;100.00;99492.73;106805;1272;100632;-58
2023/10/04 07:39:05;;;;;;;1.90;0.50;;;;;;;13.37;100.00;99495.98;106490;1270;22544;-59
2023/10/04 07:41:34;;;;;;;2.60;0.90;;;;;;;13.58;100.00;99497.15;107019;1271;22547;-58
2023/10/04 07:44:03;;;;;;;3.60;0.80;;;;;;;13.69;100.00;99492.08;107745;1271;99774;-62
2023/10/04 07:46:33;;;;;;;2.20;0.50;;;;;;;13.75;100.00;99491.70;106875;1271;22523;-58
2023/10/04 07:49:04;;;;;;;3.10;1.20;;;;;;;13.99;100.00;99492.60;106578;1271;99249;-52
2023/10/04 07:51:35;;;;;;;1.40;0.40;;;;;;;14.41;100.00;99497.02;107121;1271;22592;-48
2023/10/04 07:54:07;;;;;;;3.60;1.00;;;;;;;14.69;100.00;99498.16;107507;1271;99578;-54
2023/10/04 07:56:36;;;;;;;2.50;1.20;;;;;;;14.91;100.00;99494.85;106534;1272;25347;-58
2023/10/04 07:59:06;;;;;;;1.90;0.40;;;;;;;14.97;100.00;99502.84;106447;1273;25243;-59
2023/10/04 08:01:35;;;;;;;1.90;0.40;;;;;;;14.92;100.00;99506.35;106331;1273;100199;-59
2023/10/04 08:04:04;;;;;;;7.80;1.00;;;;;;;14.82;100.00;99509.52;106620;1271;22536;-59
2023/10/04 08:06:39;;;;;;;2.60;0.50;;;;;;;14.87;100.00;99513.04;106883;1271;100519;-59
2023/10/04 08:09:08;;;;;;;1.90;0.60;;;;;;;15.01;100.00;99513.63;107393;1277;24214;-59
2023/10/04 08:11:36;;;;;;;1.10;0.50;;;;;;;14.92;100.00;99518.48;106667;1272;25358;-59
2023/10/04 08:14:07;;;;;;;4.10;0.80;;;;;;;15.03;100.00;99522.84;106897;1271;99246;-59
2023/10/04 08:16:36;;;;;;;1.40;0.30;;;;;;;15.02;100.00;99524.81;106846;1271;22973;-59
2023/10/04 08:19:05;;;;;;;4.40;1.10;;;;;;;15.00;100.00;99520.92;107129;1271;99857;-60
2023/10/04 08:21:34;;;;;;;1.90;0.40;;;;;;;14.86;100.00;99526.44;106678;1271;25390;-59
2023/10/04 08:24:03;;;;;;;2.10;0.70;;;;;;;14.78;100.00;99524.88;106553;1272;100486;-60
2023/10/04 08:26:33;;;;;;;4.70;0.80;;;;;;;14.88;100.00;99525.93;106556;1265;26594;-60
2023/10/04 08:29:02;;;;;;;2.80;0.90;;;;;;;15.06;100.00;99527.33;106716;1271;22611;-58
2023/10/04 08:31:32;;;;;;;3.50;0.70;;;;;;;15.42;100.00;99529.39;107151;1271;99281;-61
2023/10/04 08:34:03;;;;;;;2.00;0.40;;;;;;;15.47;100.00;99537.63;106644;1271;22687;-61
2023/10/04 08:36:37;;;;;;;4.40;0.60;;;;;;;15.38;100.00;99540.48;106379;1271;100548;-60
2023/10/04 08:39:10;;;;;;;2.00;0.60;;;;;;;15.34;100.00;99543.29;106520;1254;24932;-61
2023/10/04 08:41:40;;;;;;;2.50;0.60;;;;;;;15.24;100.00;99546.92;107025;1265;24262;-60
2023/10/04 08:44:09;;;;;;;1.70;0.90;;;;;;;15.58;100.00;99546.67;106418;1271;101240;-59
2023/10/04 08:46:39;;;;;;;1.20;0.50;;;;;;;16.45;100.00;99536.70;107104;1273;25405;-59
2023/10/04 08:49:10;;;;;;;3.60;0.80;;;;;;;17.96;100.00;99539.76;106386;1271;99911;-59
2023/10/04 08:52:13;;;;;;;2.10;0.60;;;;;;;18.33;100.00;99538.59;107278;1270;22681;-59
2023/10/04 08:54:47;;;;;;;2.00;0.40;;;;;;;17.99;100.00;99550.86;107943;1270;99706;-58
2023/10/04 08:57:20;;;;;;;3.00;1.30;;;;;;;17.71;99.76;99540.60;106612;1271;22640;-59
2023/10/04 08:59:51;;;;;;;1.90;0.70;;;;;;;17.32;99.25;99551.73;107175;1271;99800;-54
2023/10/04 09:02:22;;;;;;;2.40;0.80;;;;;;;17.00;99.01;99550.02;106474;1275;22604;-60
2023/10/04 09:04:51;;;;;;;3.10;0.80;;;;;;;16.63;97.92;99561.70;107378;1270;24272;-59
2023/10/04 09:07:20;;;;;;;3.20;1.60;;;;;;;17.21;99.56;99563.84;107455;1276;100514;-59
2023/10/04 09:09:50;;;;;;;2.10;0.80;;;;;;;17.55;96.60;99569.14;106890;1271;22527;-59
2023/10/04 09:12:19;;;;;;;1.50;0.70;;;;;;;17.30;95.95;99579.70;106927;1270;100327;-59
2023/10/04 09:14:49;;;;;;;1.70;0.80;;;;;;;17.29;95.56;99570.47;106722;1273;25420;-58
2023/10/04 09:17:19;;;;;;;3.60;1.10;;;;;;;17.11;94.42;99564.63;106895;1274;23986;-60
2023/10/04 09:19:50;;;;;;;2.40;0.90;;;;;;;17.47;95.58;99582.77;106309;1271;99633;-59
2023/10/04 09:22:29;;;;;;;2.20;0.90;;;;;;;18.44;93.98;99582.05;106874;1270;22523;-58
2023/10/04 09:25:00;;;;;;;1.90;0.90;;;;;;;18.85;93.39;99583.39;107354;1270;100137;-58
2023/10/04 09:27:29;;;;;;;2.30;0.90;;;;;;;19.87;93.70;99578.42;106445;1271;24221;-58
2023/10/04 09:29:59;;;;;;;2.70;1.20;;;;;;;20.84;92.11;99588.11;106452;1271;99971;-59
2023/10/04 09:32:38;;;;;;;2.30;0.90;;;;;;;21.49;91.77;99593.89;107105;1271;25422;-58
2023/10/04 09:35:08;;;;;;;1.70;0.90;;;;;;;22.49;91.45;99595.09;106486;1274;22530;-59
2023/10/04 09:37:39;;;;;;;1.80;0.90;;;;;;;22.60;87.96;99601.23;106794;1272;99910;-59
2023/10/04 09:40:12;;;;;;;2.70;0.70;;;;;;;22.20;87.55;99603.27;106469;1271;23904;-55
2023/10/04 09:42:53;;;;;;;1.60;0.60;;;;;;;21.73;83.98;99607.55;107154;1272;99687;-56
2023/10/04 09:45:26;;;;;;;2.20;0.80;;;;;;;20.58;82.45;99612.73;107008;1268;24371;-58
2023/10/04 09:47:55;;;;;;;1.90;1.00;;;;;;;20.18;82.56;99616.66;106692;1273;99748;-57
2023/10/04 09:50:26;;;;;;;3.30;0.90;;;;;;;20.01;81.81;99612.85;106629;1271;25223;-56
2023/10/04 09:52:55;;;;;;;1.40;0.80;;;;;;;19.81;80.47;99617.48;107607;1270;25932;-56
2023/10/04 09:55:26;;;;;;;1.90;0.70;;;;;;;20.10;81.06;99620.18;106833;1271;99591;-57
2023/10/04 09:57:56;;;;;;;3.10;0.80;;;;;;;19.90;79.11;99618.80;106986;1271;22526;-56
2023/10/04 10:00:25;;;;;;;3.70;1.30;;;;;;;19.78;79.00;99622.16;107114;1270;101335;-56
2023/10/04 10:02:58;;;;;;;2.50;1.00;;;;;;;20.06;78.12;99616.16;106688;1272;22639;-56
2023/10/04 10:05:29;;;;;;;2.80;0.70;;;;;;;20.10;78.46;99626.21;106662;1270;22524;-56
2023/10/04 10:08:06;;;;;;;2.50;0.60;;;;;;;20.76;78.64;99620.27;106304;1269;99626;-56
2023/10/04 10:10:37;;;;;;;;;;;;;;;21.45;78.82;99619.39;107127;1270;24219;-56
2023/10/04 10:13:07;;;;;;;3.90;1.60;;;;;;;22.43;76.67;99619.41;106525;1271;88799;-56
2023/10/04 10:15:37;;;;;;;1.30;0.70;;;;;;;21.38;74.04;99617.56;106813;1271;22533;-57
2023/10/04 10:18:11;;;;;;;3.40;1.20;;;;;;;20.54;74.43;99625.33;107149;1274;99871;-59
2023/10/04 10:20:42;;;;;;;1.60;0.70;;;;;;;20.99;74.61;99625.50;106778;1274;22631;-57
2023/10/04 10:23:15;;;;;;;3.20;1.00;;;;;;;20.95;73.87;99627.98;106967;1271;25376;-57
2023/10/04 10:26:17;;;;;;;2.70;0.70;;;;;;;21.37;74.36;99631.46;106846;1271;99989;-58
2023/10/04 10:28:47;;;;;;;3.50;1.30;;;;;;;22.56;73.96;99630.24;107484;1271;23884;-52
2023/10/04 10:31:20;;;;;;;1.90;1.00;;;;;;;22.14;72.08;99626.67;106642;1271;99723;-57
2023/10/04 10:33:50;;;;;;;2.40;1.20;;;;;;;21.29;71.59;99638.27;106756;1271;22537;-57
2023/10/04 10:36:21;;;;;;;1.70;0.70;;;;;;;20.71;70.81;99631.92;106537;1271;99865;-58
2023/10/04 10:38:52;;;;;;;2.40;0.80;;;;;;;20.12;70.44;99630.59;106500;1271;22820;-58
2023/10/04 10:41:34;;;;;;;1.60;0.70;;;;;;;19.54;70.23;99634.42;106524;1273;22573;-58
2023/10/04 10:44:17;;;;;;;3.80;1.10;;;;;;;18.80;69.85;99640.08;107516;1271;99387;-58
2023/10/04 10:47:23;;;;;;;2.30;0.80;;;;;;;18.52;70.77;99652.22;106775;1274;22551;-58
2023/10/04 10:50:12;;;;;;;1.50;0.90;;;;;;;18.27;70.22;99645.65;106784;1255;99775;-58
2023/10/04 10:52:42;;;;;;;2.80;0.90;;;;;;;17.82;70.02;99650.77;106765;1271;23897;-57
2023/10/04 10:55:18;;;;;;;2.20;0.80;;;;;;;17.42;70.35;99647.72;106347;1274;99520;-57
2023/10/04 10:57:50;;;;;;;3.40;1.50;;;;;;;17.64;71.79;99657.79;106519;1272;22890;-55
2023/10/04 11:00:22;;;;;;;1.30;0.50;;;;;;;19.74;74.24;99660.89;107691;1272;99936;-56
2023/10/04 11:02:55;;;;;;;3.40;0.90;;;;;;;22.66;74.16;99661.62;107162;1270;25446;-58
2023/10/04 11:05:26;;;;;;;2.00;0.90;;;;;;;24.77;73.94;99661.91;106989;1271;22537;-56
2023/10/04 11:07:55;;;;;;;2.10;0.70;;;;;;;26.49;73.51;99661.28;106579;1270;99966;-60
2023/10/04 11:10:25;;;;;;;3.50;1.30;;;;;;;27.89;72.22;99657.27;106928;1271;22549;-56
2023/10/04 11:13:03;;;;;;;2.50;1.00;;;;;;;28.90;70.31;99659.04;106495;1271;100451;-56
2023/10/04 11:15:31;;;;;;;2.10;1.00;;;;;;;29.27;68.34;99656.69;106708;1258;22527;-55
2023/10/04 11:18:03;;;;;;;2.10;1.00;;;;;;;30.02;68.39;99655.01;106808;1271;100903;-58
2023/10/04 11:20:32;;;;;;;2.30;0.70;;;;;;;29.17;64.72;99650.64;106534;1271;25331;-58
2023/10/04 11:23:01;;;;;;;3.30;0.80;;;;;;;27.51;63.70;99658.56;106652;1271;25324;-56
2023/10/04 11:25:31;;;;;;;3.00;1.20;;;;;;;25.98;62.29;99658.54;106406;1269;99878;-59
2023/10/04 11:28:00;;;;;;;2.60;0.70;;;;;;;24.49;61.79;99656.40;106873;1270;25483;-60
2023/10/04 11:30:33;;;;;;;2.00;1.20;;;;;;;23.51;61.24;99651.02;106810;1271;100448;-57
2023/10/04 11:33:03;;;;;;;2.40;0.80;;;;;;;22.36;59.91;99652.17;106690;1270;25522;-57
2023/10/04 11:35:33;;;;;;;1.90;0.70;;;;;;;21.31;59.90;99644.98;107196;1271;22554;-59